sensor_id;sensor_type;location;lat;lon;timestamp;P1;durP1;ratioP1;P2;durP2;ratioP2
26656;SDS011;14279;50.010;8.260;2023-07-20T00:01:28;6.23;;;2.67;;
26656;SDS011;14279;50.010;8.260;2023-07-20T00:03:53;17.13;;;3.03;;
26656;SDS011;14279;50.010;8.260;2023-07-20T00:06:22;5.83;;;2.87;;
26656;SDS011;14279;50.010;8.260;2023-07-20T00:08:50;8.13;;;2.50;;
26656;SDS011;14279;50.010;8.260;2023-07-20T00:11:15;2.60;;;2.30;;
26656;SDS011;14279;50.010;8.260;2023-07-20T00:13:41;4.57;;;2.43;;
26656;SDS011;14279;50.010;8.260;2023-07-20T00:16:06;7.60;;;2.83;;
26656;SDS011;14279;50.010;8.260;2023-07-20T00:18:31;5.00;;;2.37;;
26656;SDS011;14279;50.010;8.260;2023-07-20T00:20:57;11.03;;;2.77;;
26656;SDS011;14279;50.010;8.260;2023-07-20T00:23:22;6.83;;;2.87;;
26656;SDS011;14279;50.010;8.260;2023-07-20T00:25:48;5.50;;;2.80;;
26656;SDS011;14279;50.010;8.260;2023-07-20T00:28:13;7.23;;;3.13;;
26656;SDS011;14279;50.010;8.260;2023-07-20T00:30:39;5.73;;;2.47;;
26656;SDS011;14279;50.010;8.260;2023-07-20T00:33:06;13.63;;;3.03;;
26656;SDS011;14279;50.010;8.260;2023-07-20T00:35:35;3.33;;;2.17;;
26656;SDS011;14279;50.010;8.260;2023-07-20T00:38:00;6.20;;;2.80;;
26656;SDS011;14279;50.010;8.260;2023-07-20T00:40:26;8.07;;;2.50;;
26656;SDS011;14279;50.010;8.260;2023-07-20T00:42:51;3.20;;;2.70;;
26656;SDS011;14279;50.010;8.260;2023-07-20T00:45:16;5.47;;;2.20;;
26656;SDS011;14279;50.010;8.260;2023-07-20T00:50:31;9.30;;;3.70;;
26656;SDS011;14279;50.010;8.260;2023-07-20T00:52:58;5.77;;;3.00;;
26656;SDS011;14279;50.010;8.260;2023-07-20T00:55:24;4.07;;;2.60;;
26656;SDS011;14279;50.010;8.260;2023-07-20T00:57:50;8.10;;;3.23;;
26656;SDS011;14279;50.010;8.260;2023-07-20T01:00:16;6.00;;;2.87;;
26656;SDS011;14279;50.010;8.260;2023-07-20T01:02:42;3.63;;;2.57;;
26656;SDS011;14279;50.010;8.260;2023-07-20T01:05:07;4.07;;;2.80;;
26656;SDS011;14279;50.010;8.260;2023-07-20T01:07:35;8.93;;;2.50;;
26656;SDS011;14279;50.010;8.260;2023-07-20T01:10:20;4.33;;;2.40;;
26656;SDS011;14279;50.010;8.260;2023-07-20T01:12:52;9.43;;;3.20;;
26656;SDS011;14279;50.010;8.260;2023-07-20T01:15:18;8.40;;;2.57;;
26656;SDS011;14279;50.010;8.260;2023-07-20T01:17:44;11.43;;;3.10;;
26656;SDS011;14279;50.010;8.260;2023-07-20T01:20:10;10.20;;;3.00;;
26656;SDS011;14279;50.010;8.260;2023-07-20T01:25:51;5.17;;;2.70;;
26656;SDS011;14279;50.010;8.260;2023-07-20T01:31:12;6.60;;;2.77;;
26656;SDS011;14279;50.010;8.260;2023-07-20T01:33:50;9.07;;;3.23;;
26656;SDS011;14279;50.010;8.260;2023-07-20T01:36:17;5.30;;;2.80;;
26656;SDS011;14279;50.010;8.260;2023-07-20T01:38:43;5.80;;;2.73;;
26656;SDS011;14279;50.010;8.260;2023-07-20T01:41:09;7.67;;;3.37;;
26656;SDS011;14279;50.010;8.260;2023-07-20T01:43:35;4.23;;;2.70;;
26656;SDS011;14279;50.010;8.260;2023-07-20T01:46:01;6.10;;;3.10;;
26656;SDS011;14279;50.010;8.260;2023-07-20T01:48:26;4.43;;;2.67;;
26656;SDS011;14279;50.010;8.260;2023-07-20T01:50:52;6.50;;;3.00;;
26656;SDS011;14279;50.010;8.260;2023-07-20T01:53:17;5.63;;;2.70;;
26656;SDS011;14279;50.010;8.260;2023-07-20T01:55:42;5.57;;;2.80;;
26656;SDS011;14279;50.010;8.260;2023-07-20T01:58:08;7.37;;;2.70;;
26656;SDS011;14279;50.010;8.260;2023-07-20T02:00:33;3.73;;;2.73;;
26656;SDS011;14279;50.010;8.260;2023-07-20T02:02:58;8.93;;;3.30;;
26656;SDS011;14279;50.010;8.260;2023-07-20T02:05:24;6.63;;;2.77;;
26656;SDS011;14279;50.010;8.260;2023-07-20T02:07:49;7.10;;;2.97;;
26656;SDS011;14279;50.010;8.260;2023-07-20T02:10:14;9.93;;;2.60;;
26656;SDS011;14279;50.010;8.260;2023-07-20T02:12:40;5.77;;;3.07;;
26656;SDS011;14279;50.010;8.260;2023-07-20T02:15:06;7.40;;;2.97;;
26656;SDS011;14279;50.010;8.260;2023-07-20T02:17:32;5.40;;;3.10;;
26656;SDS011;14279;50.010;8.260;2023-07-20T02:19:57;5.23;;;2.70;;
26656;SDS011;14279;50.010;8.260;2023-07-20T02:22:22;7.03;;;2.60;;
26656;SDS011;14279;50.010;8.260;2023-07-20T02:24:48;4.57;;;2.37;;
26656;SDS011;14279;50.010;8.260;2023-07-20T02:27:14;3.30;;;2.50;;
26656;SDS011;14279;50.010;8.260;2023-07-20T02:29:40;8.87;;;3.00;;
26656;SDS011;14279;50.010;8.260;2023-07-20T02:32:06;6.00;;;2.60;;
26656;SDS011;14279;50.010;8.260;2023-07-20T02:34:32;5.63;;;2.70;;
26656;SDS011;14279;50.010;8.260;2023-07-20T02:36:58;10.33;;;3.20;;
26656;SDS011;14279;50.010;8.260;2023-07-20T02:39:26;4.87;;;2.47;;
26656;SDS011;14279;50.010;8.260;2023-07-20T02:41:52;5.47;;;2.60;;
26656;SDS011;14279;50.010;8.260;2023-07-20T02:44:17;5.03;;;2.60;;
26656;SDS011;14279;50.010;8.260;2023-07-20T02:46:43;3.77;;;2.10;;
26656;SDS011;14279;50.010;8.260;2023-07-20T02:49:08;4.60;;;2.40;;
26656;SDS011;14279;50.010;8.260;2023-07-20T02:51:40;6.37;;;3.23;;
26656;SDS011;14279;50.010;8.260;2023-07-20T02:54:07;8.73;;;2.87;;
26656;SDS011;14279;50.010;8.260;2023-07-20T02:56:33;6.90;;;3.03;;
26656;SDS011;14279;50.010;8.260;2023-07-20T02:59:01;5.20;;;2.70;;
26656;SDS011;14279;50.010;8.260;2023-07-20T03:01:27;5.70;;;2.77;;
26656;SDS011;14279;50.010;8.260;2023-07-20T03:03:54;6.03;;;2.80;;
26656;SDS011;14279;50.010;8.260;2023-07-20T03:06:20;5.20;;;2.70;;
26656;SDS011;14279;50.010;8.260;2023-07-20T03:08:45;5.57;;;2.43;;
26656;SDS011;14279;50.010;8.260;2023-07-20T03:11:12;5.87;;;2.30;;
26656;SDS011;14279;50.010;8.260;2023-07-20T03:13:39;9.10;;;2.50;;
26656;SDS011;14279;50.010;8.260;2023-07-20T03:16:05;6.73;;;2.47;;
26656;SDS011;14279;50.010;8.260;2023-07-20T03:18:30;5.70;;;3.10;;
26656;SDS011;14279;50.010;8.260;2023-07-20T03:20:55;5.67;;;2.53;;
26656;SDS011;14279;50.010;8.260;2023-07-20T03:23:21;6.10;;;2.30;;
26656;SDS011;14279;50.010;8.260;2023-07-20T03:25:47;7.40;;;2.70;;
26656;SDS011;14279;50.010;8.260;2023-07-20T03:28:12;6.57;;;2.27;;
26656;SDS011;14279;50.010;8.260;2023-07-20T03:30:38;5.00;;;2.90;;
26656;SDS011;14279;50.010;8.260;2023-07-20T03:33:03;8.33;;;2.53;;
26656;SDS011;14279;50.010;8.260;2023-07-20T03:35:28;4.60;;;2.37;;
26656;SDS011;14279;50.010;8.260;2023-07-20T03:37:54;6.43;;;2.53;;
26656;SDS011;14279;50.010;8.260;2023-07-20T03:40:19;5.20;;;3.20;;
26656;SDS011;14279;50.010;8.260;2023-07-20T03:42:44;5.10;;;2.23;;
26656;SDS011;14279;50.010;8.260;2023-07-20T03:45:10;7.17;;;2.80;;
26656;SDS011;14279;50.010;8.260;2023-07-20T03:47:35;6.43;;;2.70;;
26656;SDS011;14279;50.010;8.260;2023-07-20T03:50:00;6.00;;;2.80;;
26656;SDS011;14279;50.010;8.260;2023-07-20T03:52:26;5.73;;;2.50;;
26656;SDS011;14279;50.010;8.260;2023-07-20T03:54:51;7.67;;;2.97;;
26656;SDS011;14279;50.010;8.260;2023-07-20T03:57:17;4.90;;;3.30;;
26656;SDS011;14279;50.010;8.260;2023-07-20T03:59:44;3.97;;;2.57;;
26656;SDS011;14279;50.010;8.260;2023-07-20T04:02:11;5.53;;;3.20;;
26656;SDS011;14279;50.010;8.260;2023-07-20T04:04:36;7.40;;;2.80;;
26656;SDS011;14279;50.010;8.260;2023-07-20T04:07:01;4.73;;;2.50;;
26656;SDS011;14279;50.010;8.260;2023-07-20T04:09:27;7.37;;;2.13;;
26656;SDS011;14279;50.010;8.260;2023-07-20T04:11:52;6.17;;;2.70;;
26656;SDS011;14279;50.010;8.260;2023-07-20T04:14:18;5.43;;;2.47;;
26656;SDS011;14279;50.010;8.260;2023-07-20T04:16:45;5.37;;;3.00;;
26656;SDS011;14279;50.010;8.260;2023-07-20T04:19:11;7.40;;;2.20;;
26656;SDS011;14279;50.010;8.260;2023-07-20T04:21:39;7.17;;;2.77;;
26656;SDS011;14279;50.010;8.260;2023-07-20T04:24:06;13.40;;;2.53;;
26656;SDS011;14279;50.010;8.260;2023-07-20T04:26:31;7.10;;;2.40;;
26656;SDS011;14279;50.010;8.260;2023-07-20T04:28:56;7.60;;;2.57;;
26656;SDS011;14279;50.010;8.260;2023-07-20T04:31:25;5.70;;;3.10;;
26656;SDS011;14279;50.010;8.260;2023-07-20T04:33:50;8.53;;;3.20;;
26656;SDS011;14279;50.010;8.260;2023-07-20T04:36:16;5.30;;;2.30;;
26656;SDS011;14279;50.010;8.260;2023-07-20T04:38:44;5.83;;;2.60;;
26656;SDS011;14279;50.010;8.260;2023-07-20T04:41:10;3.80;;;2.63;;
26656;SDS011;14279;50.010;8.260;2023-07-20T04:43:38;7.10;;;3.00;;
26656;SDS011;14279;50.010;8.260;2023-07-20T04:46:06;11.60;;;2.80;;
26656;SDS011;14279;50.010;8.260;2023-07-20T04:48:31;11.83;;;3.00;;
26656;SDS011;14279;50.010;8.260;2023-07-20T04:50:56;7.87;;;2.93;;
26656;SDS011;14279;50.010;8.260;2023-07-20T04:53:22;3.83;;;2.40;;
26656;SDS011;14279;50.010;8.260;2023-07-20T04:55:48;7.03;;;3.27;;
26656;SDS011;14279;50.010;8.260;2023-07-20T04:58:17;6.20;;;2.87;;
26656;SDS011;14279;50.010;8.260;2023-07-20T05:01:07;6.07;;;2.60;;
26656;SDS011;14279;50.010;8.260;2023-07-20T05:03:33;14.53;;;3.20;;
26656;SDS011;14279;50.010;8.260;2023-07-20T05:05:58;7.73;;;2.70;;
26656;SDS011;14279;50.010;8.260;2023-07-20T05:08:29;7.27;;;2.80;;
26656;SDS011;14279;50.010;8.260;2023-07-20T05:11:15;4.70;;;2.40;;
26656;SDS011;14279;50.010;8.260;2023-07-20T05:13:40;5.53;;;2.50;;
26656;SDS011;14279;50.010;8.260;2023-07-20T05:16:06;9.33;;;2.70;;
26656;SDS011;14279;50.010;8.260;2023-07-20T05:18:31;7.10;;;2.90;;
26656;SDS011;14279;50.010;8.260;2023-07-20T05:20:56;7.80;;;2.97;;
26656;SDS011;14279;50.010;8.260;2023-07-20T05:23:21;7.43;;;3.00;;
26656;SDS011;14279;50.010;8.260;2023-07-20T05:25:47;8.10;;;2.80;;
26656;SDS011;14279;50.010;8.260;2023-07-20T05:28:19;4.83;;;2.60;;
26656;SDS011;14279;50.010;8.260;2023-07-20T05:30:56;5.43;;;2.80;;
26656;SDS011;14279;50.010;8.260;2023-07-20T05:33:56;8.67;;;2.57;;
26656;SDS011;14279;50.010;8.260;2023-07-20T05:40:30;4.87;;;2.73;;
26656;SDS011;14279;50.010;8.260;2023-07-20T05:42:56;4.30;;;2.27;;
26656;SDS011;14279;50.010;8.260;2023-07-20T05:45:22;6.20;;;2.60;;
26656;SDS011;14279;50.010;8.260;2023-07-20T05:47:47;16.30;;;2.37;;
26656;SDS011;14279;50.010;8.260;2023-07-20T05:50:13;9.30;;;3.50;;
26656;SDS011;14279;50.010;8.260;2023-07-20T05:52:39;5.90;;;2.50;;
26656;SDS011;14279;50.010;8.260;2023-07-20T05:55:05;5.03;;;2.40;;
26656;SDS011;14279;50.010;8.260;2023-07-20T05:57:31;5.30;;;2.50;;
26656;SDS011;14279;50.010;8.260;2023-07-20T05:59:56;9.23;;;2.00;;
26656;SDS011;14279;50.010;8.260;2023-07-20T06:02:23;6.80;;;3.07;;
26656;SDS011;14279;50.010;8.260;2023-07-20T06:04:48;8.83;;;2.60;;
26656;SDS011;14279;50.010;8.260;2023-07-20T06:07:14;6.40;;;2.70;;
26656;SDS011;14279;50.010;8.260;2023-07-20T06:09:40;6.37;;;2.80;;
26656;SDS011;14279;50.010;8.260;2023-07-20T06:12:05;8.30;;;3.27;;
26656;SDS011;14279;50.010;8.260;2023-07-20T06:14:31;9.90;;;2.90;;
26656;SDS011;14279;50.010;8.260;2023-07-20T06:16:56;3.40;;;2.30;;
26656;SDS011;14279;50.010;8.260;2023-07-20T06:19:21;6.57;;;3.03;;
26656;SDS011;14279;50.010;8.260;2023-07-20T06:21:47;3.57;;;2.40;;
26656;SDS011;14279;50.010;8.260;2023-07-20T06:24:14;4.83;;;2.50;;
26656;SDS011;14279;50.010;8.260;2023-07-20T06:26:39;10.63;;;3.03;;
26656;SDS011;14279;50.010;8.260;2023-07-20T06:29:05;4.77;;;2.97;;
26656;SDS011;14279;50.010;8.260;2023-07-20T06:31:34;4.67;;;2.83;;
26656;SDS011;14279;50.010;8.260;2023-07-20T06:34:00;11.20;;;2.60;;
26656;SDS011;14279;50.010;8.260;2023-07-20T06:36:26;6.93;;;2.93;;
26656;SDS011;14279;50.010;8.260;2023-07-20T06:38:51;6.73;;;2.53;;
26656;SDS011;14279;50.010;8.260;2023-07-20T06:41:17;8.80;;;2.90;;
26656;SDS011;14279;50.010;8.260;2023-07-20T06:43:43;4.20;;;2.33;;
26656;SDS011;14279;50.010;8.260;2023-07-20T06:46:08;5.67;;;2.90;;
26656;SDS011;14279;50.010;8.260;2023-07-20T06:48:33;11.60;;;2.93;;
26656;SDS011;14279;50.010;8.260;2023-07-20T06:50:58;6.63;;;3.30;;
26656;SDS011;14279;50.010;8.260;2023-07-20T06:53:24;4.73;;;2.90;;
26656;SDS011;14279;50.010;8.260;2023-07-20T06:55:49;9.10;;;3.23;;
26656;SDS011;14279;50.010;8.260;2023-07-20T06:58:14;5.37;;;2.97;;
26656;SDS011;14279;50.010;8.260;2023-07-20T07:00:40;3.63;;;2.90;;
26656;SDS011;14279;50.010;8.260;2023-07-20T07:03:05;8.80;;;3.13;;
26656;SDS011;14279;50.010;8.260;2023-07-20T07:05:34;5.23;;;3.00;;
26656;SDS011;14279;50.010;8.260;2023-07-20T07:08:01;8.20;;;2.73;;
26656;SDS011;14279;50.010;8.260;2023-07-20T07:10:27;7.60;;;3.00;;
26656;SDS011;14279;50.010;8.260;2023-07-20T07:12:52;7.70;;;3.07;;
26656;SDS011;14279;50.010;8.260;2023-07-20T07:15:17;5.53;;;2.90;;
26656;SDS011;14279;50.010;8.260;2023-07-20T07:17:43;6.83;;;3.20;;
26656;SDS011;14279;50.010;8.260;2023-07-20T07:20:08;6.63;;;3.20;;
26656;SDS011;14279;50.010;8.260;2023-07-20T07:22:34;4.50;;;2.40;;
26656;SDS011;14279;50.010;8.260;2023-07-20T07:30:12;6.87;;;2.80;;
26656;SDS011;14279;50.010;8.260;2023-07-20T07:33:16;6.13;;;2.57;;
26656;SDS011;14279;50.010;8.260;2023-07-20T07:36:04;8.23;;;3.30;;
26656;SDS011;14279;50.010;8.260;2023-07-20T07:38:49;7.23;;;3.60;;
26656;SDS011;14279;50.010;8.260;2023-07-20T07:42:04;5.20;;;3.00;;
26656;SDS011;14279;50.010;8.260;2023-07-20T07:44:37;8.40;;;3.40;;
26656;SDS011;14279;50.010;8.260;2023-07-20T07:47:36;6.10;;;3.10;;
26656;SDS011;14279;50.010;8.260;2023-07-20T07:50:47;5.70;;;2.30;;
26656;SDS011;14279;50.010;8.260;2023-07-20T07:53:18;12.17;;;2.83;;
26656;SDS011;14279;50.010;8.260;2023-07-20T07:55:51;10.40;;;3.13;;
26656;SDS011;14279;50.010;8.260;2023-07-20T08:01:56;6.80;;;2.80;;
26656;SDS011;14279;50.010;8.260;2023-07-20T08:04:46;3.80;;;2.40;;
26656;SDS011;14279;50.010;8.260;2023-07-20T08:07:17;4.97;;;2.63;;
26656;SDS011;14279;50.010;8.260;2023-07-20T08:09:49;3.57;;;2.20;;
26656;SDS011;14279;50.010;8.260;2023-07-20T08:12:21;6.33;;;2.70;;
26656;SDS011;14279;50.010;8.260;2023-07-20T08:14:51;7.00;;;3.37;;
26656;SDS011;14279;50.010;8.260;2023-07-20T08:17:19;3.57;;;2.10;;
26656;SDS011;14279;50.010;8.260;2023-07-20T08:19:47;3.93;;;2.37;;
26656;SDS011;14279;50.010;8.260;2023-07-20T08:22:18;6.40;;;2.53;;
26656;SDS011;14279;50.010;8.260;2023-07-20T08:24:44;4.07;;;2.33;;
26656;SDS011;14279;50.010;8.260;2023-07-20T08:27:13;2.50;;;2.23;;
26656;SDS011;14279;50.010;8.260;2023-07-20T08:29:46;3.93;;;2.40;;
26656;SDS011;14279;50.010;8.260;2023-07-20T08:32:11;4.20;;;2.50;;
26656;SDS011;14279;50.010;8.260;2023-07-20T08:34:39;4.63;;;1.80;;
26656;SDS011;14279;50.010;8.260;2023-07-20T08:37:11;10.47;;;2.73;;
26656;SDS011;14279;50.010;8.260;2023-07-20T08:39:50;3.50;;;2.10;;
26656;SDS011;14279;50.010;8.260;2023-07-20T08:42:23;4.30;;;2.50;;
26656;SDS011;14279;50.010;8.260;2023-07-20T08:44:52;6.50;;;2.20;;
26656;SDS011;14279;50.010;8.260;2023-07-20T08:50:37;6.87;;;2.33;;
26656;SDS011;14279;50.010;8.260;2023-07-20T08:53:16;3.63;;;2.30;;
26656;SDS011;14279;50.010;8.260;2023-07-20T08:56:06;3.73;;;1.90;;
26656;SDS011;14279;50.010;8.260;2023-07-20T08:58:43;6.70;;;2.20;;
26656;SDS011;14279;50.010;8.260;2023-07-20T09:01:14;6.83;;;2.30;;
26656;SDS011;14279;50.010;8.260;2023-07-20T09:03:46;9.70;;;2.77;;
26656;SDS011;14279;50.010;8.260;2023-07-20T09:06:19;7.07;;;2.67;;
26656;SDS011;14279;50.010;8.260;2023-07-20T09:08:45;4.20;;;2.23;;
26656;SDS011;14279;50.010;8.260;2023-07-20T09:11:10;4.03;;;2.27;;
26656;SDS011;14279;50.010;8.260;2023-07-20T09:13:37;6.20;;;2.60;;
26656;SDS011;14279;50.010;8.260;2023-07-20T09:16:03;6.47;;;2.53;;
26656;SDS011;14279;50.010;8.260;2023-07-20T09:18:30;4.87;;;2.50;;
26656;SDS011;14279;50.010;8.260;2023-07-20T09:21:03;4.37;;;2.50;;
26656;SDS011;14279;50.010;8.260;2023-07-20T09:23:35;6.40;;;2.40;;
26656;SDS011;14279;50.010;8.260;2023-07-20T09:26:13;6.70;;;2.03;;
26656;SDS011;14279;50.010;8.260;2023-07-20T09:28:44;4.70;;;2.30;;
26656;SDS011;14279;50.010;8.260;2023-07-20T09:31:21;4.03;;;2.27;;
26656;SDS011;14279;50.010;8.260;2023-07-20T09:33:48;5.60;;;2.40;;
26656;SDS011;14279;50.010;8.260;2023-07-20T09:36:14;4.23;;;2.00;;
26656;SDS011;14279;50.010;8.260;2023-07-20T09:38:43;9.60;;;2.40;;
26656;SDS011;14279;50.010;8.260;2023-07-20T09:41:14;3.30;;;2.20;;
26656;SDS011;14279;50.010;8.260;2023-07-20T09:43:43;5.63;;;1.97;;
26656;SDS011;14279;50.010;8.260;2023-07-20T09:46:11;5.10;;;2.43;;
26656;SDS011;14279;50.010;8.260;2023-07-20T09:48:42;3.90;;;2.30;;
26656;SDS011;14279;50.010;8.260;2023-07-20T09:51:27;2.80;;;2.27;;
26656;SDS011;14279;50.010;8.260;2023-07-20T09:53:54;7.23;;;2.10;;
26656;SDS011;14279;50.010;8.260;2023-07-20T09:56:21;3.47;;;2.50;;
26656;SDS011;14279;50.010;8.260;2023-07-20T09:58:50;6.53;;;2.80;;
26656;SDS011;14279;50.010;8.260;2023-07-20T10:01:17;4.70;;;2.67;;
26656;SDS011;14279;50.010;8.260;2023-07-20T10:03:46;3.73;;;2.47;;
26656;SDS011;14279;50.010;8.260;2023-07-20T10:06:20;3.50;;;2.27;;
26656;SDS011;14279;50.010;8.260;2023-07-20T10:08:50;4.10;;;2.57;;
26656;SDS011;14279;50.010;8.260;2023-07-20T10:11:26;5.50;;;2.50;;
26656;SDS011;14279;50.010;8.260;2023-07-20T10:14:28;4.40;;;2.50;;
26656;SDS011;14279;50.010;8.260;2023-07-20T10:16:58;4.63;;;2.53;;
26656;SDS011;14279;50.010;8.260;2023-07-20T10:19:42;4.60;;;2.27;;
26656;SDS011;14279;50.010;8.260;2023-07-20T10:22:23;6.43;;;2.60;;
26656;SDS011;14279;50.010;8.260;2023-07-20T10:24:59;3.50;;;2.00;;
26656;SDS011;14279;50.010;8.260;2023-07-20T10:27:26;7.77;;;2.73;;
26656;SDS011;14279;50.010;8.260;2023-07-20T10:29:51;6.70;;;2.00;;
26656;SDS011;14279;50.010;8.260;2023-07-20T10:32:22;4.80;;;2.73;;
26656;SDS011;14279;50.010;8.260;2023-07-20T10:34:58;4.80;;;2.10;;
26656;SDS011;14279;50.010;8.260;2023-07-20T10:40:54;3.20;;;2.33;;
26656;SDS011;14279;50.010;8.260;2023-07-20T10:43:22;3.80;;;2.23;;
26656;SDS011;14279;50.010;8.260;2023-07-20T10:45:51;5.50;;;2.23;;
26656;SDS011;14279;50.010;8.260;2023-07-20T10:50:44;3.80;;;2.30;;
26656;SDS011;14279;50.010;8.260;2023-07-20T10:53:31;6.03;;;2.27;;
26656;SDS011;14279;50.010;8.260;2023-07-20T10:56:13;7.73;;;2.37;;
26656;SDS011;14279;50.010;8.260;2023-07-20T10:58:49;4.50;;;2.60;;
26656;SDS011;14279;50.010;8.260;2023-07-20T11:01:54;9.93;;;2.30;;
26656;SDS011;14279;50.010;8.260;2023-07-20T11:04:38;5.93;;;2.63;;
26656;SDS011;14279;50.010;8.260;2023-07-20T11:07:06;3.03;;;2.10;;
26656;SDS011;14279;50.010;8.260;2023-07-20T11:09:46;8.87;;;2.37;;
26656;SDS011;14279;50.010;8.260;2023-07-20T11:12:40;3.00;;;2.10;;
26656;SDS011;14279;50.010;8.260;2023-07-20T11:15:08;5.83;;;1.97;;
26656;SDS011;14279;50.010;8.260;2023-07-20T11:17:36;3.20;;;1.70;;
26656;SDS011;14279;50.010;8.260;2023-07-20T11:20:04;4.20;;;2.57;;
26656;SDS011;14279;50.010;8.260;2023-07-20T11:22:33;5.20;;;2.20;;
26656;SDS011;14279;50.010;8.260;2023-07-20T11:24:58;3.87;;;2.10;;
26656;SDS011;14279;50.010;8.260;2023-07-20T11:27:24;4.43;;;1.70;;
26656;SDS011;14279;50.010;8.260;2023-07-20T11:29:52;6.43;;;2.50;;
26656;SDS011;14279;50.010;8.260;2023-07-20T11:32:47;1.73;;;1.63;;
26656;SDS011;14279;50.010;8.260;2023-07-20T11:35:26;4.57;;;2.30;;
26656;SDS011;14279;50.010;8.260;2023-07-20T11:38:38;2.60;;;1.83;;
26656;SDS011;14279;50.010;8.260;2023-07-20T11:44:28;13.30;;;2.07;;
26656;SDS011;14279;50.010;8.260;2023-07-20T11:53:24;4.83;;;1.90;;
26656;SDS011;14279;50.010;8.260;2023-07-20T11:56:01;3.73;;;1.67;;
26656;SDS011;14279;50.010;8.260;2023-07-20T11:58:32;10.63;;;2.27;;
26656;SDS011;14279;50.010;8.260;2023-07-20T12:00:57;3.47;;;1.80;;
26656;SDS011;14279;50.010;8.260;2023-07-20T12:03:30;3.20;;;2.07;;
26656;SDS011;14279;50.010;8.260;2023-07-20T12:06:30;4.63;;;2.00;;
26656;SDS011;14279;50.010;8.260;2023-07-20T12:09:33;7.87;;;1.80;;
26656;SDS011;14279;50.010;8.260;2023-07-20T12:12:26;2.53;;;1.37;;
26656;SDS011;14279;50.010;8.260;2023-07-20T12:15:37;2.30;;;1.40;;
26656;SDS011;14279;50.010;8.260;2023-07-20T12:18:22;4.17;;;1.87;;
26656;SDS011;14279;50.010;8.260;2023-07-20T12:21:22;5.13;;;1.83;;
26656;SDS011;14279;50.010;8.260;2023-07-20T12:26:59;2.10;;;1.67;;
26656;SDS011;14279;50.010;8.260;2023-07-20T12:29:30;2.90;;;1.80;;
26656;SDS011;14279;50.010;8.260;2023-07-20T12:32:04;7.13;;;1.83;;
26656;SDS011;14279;50.010;8.260;2023-07-20T12:34:33;3.17;;;1.87;;
26656;SDS011;14279;50.010;8.260;2023-07-20T12:37:02;2.70;;;1.73;;
26656;SDS011;14279;50.010;8.260;2023-07-20T12:39:49;12.07;;;2.13;;
26656;SDS011;14279;50.010;8.260;2023-07-20T12:42:22;7.10;;;1.90;;
26656;SDS011;14279;50.010;8.260;2023-07-20T12:45:25;10.10;;;2.43;;
26656;SDS011;14279;50.010;8.260;2023-07-20T12:48:02;3.80;;;2.30;;
26656;SDS011;14279;50.010;8.260;2023-07-20T12:50:28;8.87;;;2.30;;
26656;SDS011;14279;50.010;8.260;2023-07-20T12:53:02;3.27;;;1.73;;
26656;SDS011;14279;50.010;8.260;2023-07-20T12:55:30;1.87;;;1.37;;
26656;SDS011;14279;50.010;8.260;2023-07-20T12:58:04;3.53;;;2.07;;
26656;SDS011;14279;50.010;8.260;2023-07-20T13:00:45;5.50;;;2.13;;
26656;SDS011;14279;50.010;8.260;2023-07-20T13:03:15;6.20;;;1.77;;
26656;SDS011;14279;50.010;8.260;2023-07-20T13:05:53;4.93;;;2.00;;
26656;SDS011;14279;50.010;8.260;2023-07-20T13:08:18;4.80;;;2.30;;
26656;SDS011;14279;50.010;8.260;2023-07-20T13:10:44;2.70;;;1.53;;
26656;SDS011;14279;50.010;8.260;2023-07-20T13:13:13;3.17;;;2.00;;
26656;SDS011;14279;50.010;8.260;2023-07-20T13:15:45;4.77;;;2.07;;
26656;SDS011;14279;50.010;8.260;2023-07-20T13:18:11;4.00;;;1.57;;
26656;SDS011;14279;50.010;8.260;2023-07-20T13:20:44;5.30;;;2.00;;
26656;SDS011;14279;50.010;8.260;2023-07-20T13:23:09;2.90;;;1.73;;
26656;SDS011;14279;50.010;8.260;2023-07-20T13:25:46;4.50;;;1.77;;
26656;SDS011;14279;50.010;8.260;2023-07-20T13:28:14;4.00;;;1.90;;
26656;SDS011;14279;50.010;8.260;2023-07-20T13:30:47;2.83;;;2.37;;
26656;SDS011;14279;50.010;8.260;2023-07-20T13:33:15;3.40;;;2.20;;
26656;SDS011;14279;50.010;8.260;2023-07-20T13:35:46;3.67;;;1.83;;
26656;SDS011;14279;50.010;8.260;2023-07-20T13:38:17;3.97;;;1.80;;
26656;SDS011;14279;50.010;8.260;2023-07-20T13:40:46;4.20;;;1.83;;
26656;SDS011;14279;50.010;8.260;2023-07-20T13:43:11;4.03;;;2.63;;
26656;SDS011;14279;50.010;8.260;2023-07-20T13:45:40;1.93;;;1.53;;
26656;SDS011;14279;50.010;8.260;2023-07-20T13:48:05;6.00;;;1.80;;
26656;SDS011;14279;50.010;8.260;2023-07-20T13:50:38;6.40;;;1.90;;
26656;SDS011;14279;50.010;8.260;2023-07-20T13:53:03;3.10;;;2.07;;
26656;SDS011;14279;50.010;8.260;2023-07-20T13:55:28;2.20;;;1.80;;
26656;SDS011;14279;50.010;8.260;2023-07-20T13:57:56;7.47;;;2.40;;
26656;SDS011;14279;50.010;8.260;2023-07-20T14:00:21;2.10;;;1.70;;
26656;SDS011;14279;50.010;8.260;2023-07-20T14:02:46;3.50;;;1.97;;
26656;SDS011;14279;50.010;8.260;2023-07-20T14:05:11;3.47;;;1.80;;
26656;SDS011;14279;50.010;8.260;2023-07-20T14:07:37;2.80;;;1.50;;
26656;SDS011;14279;50.010;8.260;2023-07-20T14:10:02;6.50;;;2.30;;
26656;SDS011;14279;50.010;8.260;2023-07-20T14:12:28;4.47;;;1.90;;
26656;SDS011;14279;50.010;8.260;2023-07-20T14:14:54;6.57;;;1.97;;
26656;SDS011;14279;50.010;8.260;2023-07-20T14:17:20;5.20;;;2.37;;
26656;SDS011;14279;50.010;8.260;2023-07-20T14:19:45;4.03;;;1.90;;
26656;SDS011;14279;50.010;8.260;2023-07-20T14:22:10;4.80;;;2.20;;
26656;SDS011;14279;50.010;8.260;2023-07-20T14:24:36;4.17;;;1.77;;
26656;SDS011;14279;50.010;8.260;2023-07-20T14:27:01;8.00;;;2.20;;
26656;SDS011;14279;50.010;8.260;2023-07-20T14:29:26;3.60;;;2.30;;
26656;SDS011;14279;50.010;8.260;2023-07-20T14:31:52;3.70;;;1.57;;
26656;SDS011;14279;50.010;8.260;2023-07-20T14:34:18;4.83;;;2.00;;
26656;SDS011;14279;50.010;8.260;2023-07-20T14:36:44;5.37;;;1.60;;
26656;SDS011;14279;50.010;8.260;2023-07-20T14:39:09;2.00;;;1.70;;
26656;SDS011;14279;50.010;8.260;2023-07-20T14:41:34;12.73;;;1.60;;
26656;SDS011;14279;50.010;8.260;2023-07-20T14:44:00;4.23;;;1.80;;
26656;SDS011;14279;50.010;8.260;2023-07-20T14:46:25;3.43;;;1.90;;
26656;SDS011;14279;50.010;8.260;2023-07-20T14:48:50;6.93;;;1.53;;
26656;SDS011;14279;50.010;8.260;2023-07-20T14:51:16;4.13;;;2.00;;
26656;SDS011;14279;50.010;8.260;2023-07-20T14:53:42;2.30;;;1.53;;
26656;SDS011;14279;50.010;8.260;2023-07-20T14:56:07;2.17;;;1.57;;
26656;SDS011;14279;50.010;8.260;2023-07-20T14:58:33;2.20;;;1.60;;
26656;SDS011;14279;50.010;8.260;2023-07-20T15:00:58;9.17;;;1.80;;
26656;SDS011;14279;50.010;8.260;2023-07-20T15:03:23;6.33;;;1.77;;
26656;SDS011;14279;50.010;8.260;2023-07-20T15:05:48;4.43;;;1.60;;
26656;SDS011;14279;50.010;8.260;2023-07-20T15:08:15;2.40;;;1.67;;
26656;SDS011;14279;50.010;8.260;2023-07-20T15:10:41;4.20;;;1.70;;
26656;SDS011;14279;50.010;8.260;2023-07-20T15:13:07;2.13;;;1.40;;
26656;SDS011;14279;50.010;8.260;2023-07-20T15:15:33;3.07;;;1.80;;
26656;SDS011;14279;50.010;8.260;2023-07-20T15:17:59;5.23;;;2.37;;
26656;SDS011;14279;50.010;8.260;2023-07-20T15:20:24;3.43;;;1.60;;
26656;SDS011;14279;50.010;8.260;2023-07-20T15:22:49;3.57;;;1.20;;
26656;SDS011;14279;50.010;8.260;2023-07-20T15:25:15;14.33;;;1.50;;
26656;SDS011;14279;50.010;8.260;2023-07-20T15:27:40;3.87;;;1.93;;
26656;SDS011;14279;50.010;8.260;2023-07-20T15:30:08;3.67;;;1.60;;
26656;SDS011;14279;50.010;8.260;2023-07-20T15:32:34;3.57;;;1.80;;
26656;SDS011;14279;50.010;8.260;2023-07-20T15:34:59;4.60;;;1.70;;
26656;SDS011;14279;50.010;8.260;2023-07-20T15:37:25;6.07;;;1.63;;
26656;SDS011;14279;50.010;8.260;2023-07-20T15:39:51;2.87;;;1.67;;
26656;SDS011;14279;50.010;8.260;2023-07-20T15:42:16;4.13;;;2.10;;
26656;SDS011;14279;50.010;8.260;2023-07-20T15:44:42;4.50;;;1.80;;
26656;SDS011;14279;50.010;8.260;2023-07-20T15:47:07;8.30;;;1.70;;